createdAt,value
2018-07-01T00:00:12.910Z,28
2018-07-01T00:01:12.715Z,32
2018-07-01T00:02:13.028Z,24
2018-07-01T00:03:12.750Z,28
2018-07-01T00:04:13.135Z,28
2018-07-01T00:05:12.879Z,28
2018-07-01T00:06:12.783Z,28
2018-07-01T00:07:12.787Z,28
2018-07-01T00:08:12.855Z,28
2018-07-01T00:09:12.792Z,28
2018-07-01T00:10:14.281Z,28
2018-07-01T00:11:12.783Z,28
2018-07-01T00:12:12.845Z,28
2018-07-01T00:13:12.838Z,28
2018-07-01T00:14:12.925Z,28
2018-07-01T00:15:12.870Z,28
2018-07-01T00:16:13.269Z,0
2018-07-01T00:17:12.839Z,0
2018-07-01T00:18:13.132Z,0
2018-07-01T00:19:12.807Z,0
2018-07-01T00:20:12.814Z,0
2018-07-01T00:21:12.794Z,0
2018-07-01T00:22:13.223Z,0
2018-07-01T00:23:14.166Z,0
2018-07-01T00:24:12.847Z,0
2018-07-01T00:25:12.778Z,0
2018-07-01T00:26:12.848Z,0
2018-07-01T00:27:12.802Z,0
2018-07-01T00:28:13.130Z,0
2018-07-01T00:29:12.800Z,0
2018-07-01T00:30:12.901Z,0
2018-07-01T00:31:13.432Z,0
2018-07-01T00:32:12.860Z,0
2018-07-01T00:33:12.817Z,0
2018-07-01T00:34:13.157Z,0
2018-07-01T00:35:12.837Z,0
2018-07-01T00:36:12.867Z,0
2018-07-01T00:37:12.817Z,0
2018-07-01T00:38:12.796Z,0
2018-07-01T00:39:12.863Z,0
2018-07-01T00:40:14.202Z,0
2018-07-01T00:41:12.826Z,0
2018-07-01T00:42:12.856Z,0
2018-07-01T00:43:13.966Z,0
2018-07-01T00:44:12.873Z,0
2018-07-01T00:45:12.856Z,0
2018-07-01T00:46:14.286Z,0
2018-07-01T00:47:12.834Z,0
2018-07-01T00:48:12.846Z,0
2018-07-01T00:49:12.850Z,0
2018-07-01T00:50:13.235Z,0
2018-07-01T00:51:12.835Z,0
2018-07-01T00:52:13.237Z,0
2018-07-01T00:53:12.871Z,0
2018-07-01T00:54:12.984Z,0
2018-07-01T00:55:12.886Z,0
2018-07-01T00:56:12.900Z,0
2018-07-01T00:57:12.850Z,0
2018-07-01T00:58:13.209Z,0
2018-07-01T00:59:12.882Z,0
2018-07-01T01:06:41.245Z,0
2018-07-01T01:06:52.671Z,0
2018-07-01T01:07:52.716Z,0
2018-07-01T01:08:52.730Z,0
2018-07-01T01:09:52.676Z,0
2018-07-01T01:10:52.714Z,0
2018-07-01T01:11:53.081Z,0
2018-07-01T01:12:52.739Z,0
2018-07-01T01:13:52.742Z,0
2018-07-01T01:14:52.763Z,0
2018-07-01T01:15:52.825Z,0
2018-07-01T01:16:53.395Z,0
2018-07-01T01:17:53.612Z,0
2018-07-01T01:18:52.744Z,0
2018-07-01T01:19:52.747Z,0
2018-07-01T01:20:52.734Z,0
2018-07-01T01:21:52.729Z,0
2018-07-01T01:22:52.801Z,0
2018-07-01T01:23:53.163Z,0
2018-07-01T01:24:52.806Z,0
2018-07-01T01:25:52.716Z,0
2018-07-01T01:26:52.742Z,0
2018-07-01T01:27:52.721Z,0
2018-07-01T01:28:52.701Z,0
2018-07-01T01:29:53.120Z,0
2018-07-01T01:30:52.819Z,0
2018-07-01T01:31:52.725Z,0
2018-07-01T01:32:52.754Z,0
2018-07-01T01:33:52.708Z,0
2018-07-01T01:34:52.819Z,0
2018-07-01T01:35:53.182Z,0
2018-07-01T01:36:52.763Z,0
2018-07-01T01:37:52.739Z,0
2018-07-01T01:38:52.741Z,0
2018-07-01T01:39:52.745Z,0
2018-07-01T01:40:52.733Z,0
2018-07-01T01:41:53.080Z,0
2018-07-01T01:42:52.872Z,0
2018-07-01T01:43:52.702Z,0
2018-07-01T01:44:52.761Z,0
2018-07-01T01:45:52.787Z,0
2018-07-01T01:46:52.826Z,0
2018-07-01T01:47:53.059Z,0
2018-07-01T01:48:52.809Z,0
2018-07-01T01:49:52.747Z,0
2018-07-01T01:50:52.770Z,0
2018-07-01T01:51:52.806Z,0
2018-07-01T01:52:52.814Z,0
2018-07-01T01:53:54.124Z,0
2018-07-01T01:54:52.800Z,0
2018-07-01T01:55:53.480Z,0
2018-07-01T01:56:52.733Z,0
2018-07-01T01:57:52.816Z,0
2018-07-01T01:58:52.819Z,0
2018-07-01T01:59:53.097Z,0
2018-07-01T02:00:52.839Z,0
2018-07-01T02:01:52.801Z,0
2018-07-01T02:02:53.746Z,0
2018-07-01T02:03:52.861Z,0
2018-07-01T02:04:52.758Z,0
2018-07-01T02:05:53.082Z,0
2018-07-01T02:06:52.824Z,0
2018-07-01T02:07:52.786Z,0
2018-07-01T02:08:52.874Z,0
2018-07-01T02:09:52.845Z,0
2018-07-01T02:10:52.797Z,0
2018-07-01T02:11:52.774Z,0
2018-07-01T02:12:52.861Z,0
2018-07-01T02:13:52.840Z,0
2018-07-01T02:14:52.773Z,0
2018-07-01T02:15:52.807Z,0
2018-07-01T02:16:53.168Z,0
2018-07-01T02:17:52.802Z,0
2018-07-01T02:18:52.810Z,0
2018-07-01T02:19:52.777Z,0
2018-07-01T02:20:52.810Z,0
2018-07-01T02:21:52.848Z,0
2018-07-01T02:22:53.346Z,0
2018-07-01T02:23:52.881Z,0
2018-07-01T02:24:52.813Z,0
2018-07-01T02:25:52.843Z,0
2018-07-01T02:26:52.854Z,0
2018-07-01T02:27:52.855Z,0
2018-07-01T02:28:53.173Z,0
2018-07-01T02:29:52.822Z,0
2018-07-01T02:30:52.849Z,0
2018-07-01T02:31:52.911Z,0
2018-07-01T02:32:52.864Z,0
2018-07-01T02:33:52.872Z,0
2018-07-01T02:34:54.181Z,0
2018-07-01T02:35:52.808Z,0
2018-07-01T02:36:52.891Z,0
2018-07-01T02:37:52.849Z,0
2018-07-01T02:38:52.804Z,0
2018-07-01T02:39:52.944Z,0
2018-07-01T02:40:54.232Z,0
2018-07-01T02:41:52.820Z,0
2018-07-01T02:42:52.883Z,0
2018-07-01T02:43:52.834Z,0
2018-07-01T02:45:57.612Z,0
2018-07-01T02:46:09.057Z,0
2018-07-01T02:47:10.440Z,0
2018-07-01T02:48:09.052Z,0
2018-07-01T02:49:09.031Z,0
2018-07-01T02:50:09.025Z,0
2018-07-01T02:51:09.057Z,0
2018-07-01T02:52:09.043Z,0
2018-07-01T02:53:09.356Z,0
2018-07-01T02:54:09.027Z,0
2018-07-01T02:55:09.063Z,0
2018-07-01T02:56:09.045Z,0
2018-07-01T02:57:09.127Z,0
2018-07-01T02:58:09.062Z,0
2018-07-01T02:59:09.394Z,0
2018-07-01T03:00:09.094Z,0
2018-07-01T03:01:09.105Z,0
2018-07-01T03:02:09.040Z,0
2018-07-01T03:03:09.041Z,0
2018-07-01T03:04:09.668Z,0
2018-07-01T03:05:10.387Z,0
2018-07-01T03:06:09.058Z,0
2018-07-01T03:07:09.060Z,0
2018-07-01T03:08:09.091Z,0
2018-07-01T03:09:09.082Z,0
2018-07-01T03:10:09.055Z,0
2018-07-01T03:11:10.368Z,0
2018-07-01T03:12:09.076Z,0
2018-07-01T03:13:09.045Z,0
2018-07-01T03:14:09.086Z,0
2018-07-01T03:15:09.162Z,0
2018-07-01T03:16:09.153Z,0
2018-07-01T03:17:09.425Z,0
2018-07-01T03:18:09.130Z,0
2018-07-01T03:19:09.119Z,0
2018-07-01T03:20:09.067Z,0
2018-07-01T03:21:09.086Z,0
2018-07-01T03:22:09.054Z,0
2018-07-01T03:23:09.531Z,0
2018-07-01T03:24:09.127Z,0
2018-07-01T03:25:09.109Z,0
2018-07-01T03:26:09.111Z,0
2018-07-01T03:27:09.171Z,0
2018-07-01T03:28:09.158Z,0
2018-07-01T03:29:10.455Z,0
2018-07-01T03:30:09.088Z,0
2018-07-01T03:31:09.119Z,0
2018-07-01T03:32:09.071Z,0
2018-07-01T03:33:09.084Z,0
2018-07-01T03:34:09.111Z,0
2018-07-01T03:35:09.473Z,0
2018-07-01T03:36:09.154Z,0
2018-07-01T03:37:09.111Z,0
2018-07-01T03:38:09.117Z,0
2018-07-01T03:39:09.120Z,0
2018-07-01T03:40:09.110Z,0
2018-07-01T03:41:10.492Z,0
2018-07-01T03:42:09.133Z,0
2018-07-01T03:43:09.130Z,0
2018-07-01T03:44:09.183Z,0
2018-07-01T03:45:09.178Z,0
2018-07-01T03:46:09.184Z,0
2018-07-01T03:47:09.453Z,0
2018-07-01T03:48:09.177Z,0
2018-07-01T03:49:09.133Z,0
2018-07-01T03:50:09.219Z,0
2018-07-01T03:51:09.148Z,0
2018-07-01T03:52:09.122Z,0
2018-07-01T03:53:10.489Z,0
2018-07-01T03:54:09.146Z,0
2018-07-01T03:55:09.167Z,0
2018-07-01T03:56:09.147Z,0
2018-07-01T03:57:09.205Z,0
2018-07-01T03:58:09.186Z,0
2018-07-01T03:59:09.544Z,0
2018-07-01T04:00:09.156Z,0
2018-07-01T04:01:09.156Z,0
2018-07-01T04:02:09.253Z,0
2018-07-01T04:03:09.196Z,0
2018-07-01T04:04:09.182Z,0
2018-07-01T04:05:09.651Z,0
2018-07-01T04:06:09.213Z,0
2018-07-01T04:07:09.169Z,0
2018-07-01T04:08:09.252Z,0
2018-07-01T04:09:09.179Z,0
2018-07-01T04:10:09.246Z,0
2018-07-01T04:11:09.611Z,0
2018-07-01T04:12:09.180Z,0
2018-07-01T04:13:09.213Z,0
2018-07-01T04:14:09.188Z,0
2018-07-01T04:15:09.170Z,0
2018-07-01T04:16:09.202Z,0
2018-07-01T04:17:10.599Z,0
2018-07-01T04:18:09.244Z,0
2018-07-01T04:19:09.195Z,0
2018-07-01T04:20:09.202Z,0
2018-07-01T04:21:09.193Z,0
2018-07-01T04:22:09.193Z,0
2018-07-01T04:23:09.531Z,0
2018-07-01T04:24:09.200Z,0
2018-07-01T04:25:09.415Z,0
2018-07-01T04:26:09.245Z,0
2018-07-01T04:27:09.145Z,0
2018-07-01T04:28:09.200Z,0
2018-07-01T04:29:09.546Z,0
2018-07-01T04:30:09.199Z,0
2018-07-01T04:31:09.377Z,0
2018-07-01T04:32:09.210Z,0
2018-07-01T04:33:09.158Z,0
2018-07-01T04:34:09.228Z,0
2018-07-01T04:35:09.567Z,0
2018-07-01T04:36:09.191Z,0
2018-07-01T04:37:09.164Z,0
2018-07-01T04:38:09.217Z,0
2018-07-01T04:39:09.224Z,0
2018-07-01T04:40:09.231Z,0
2018-07-01T04:41:09.623Z,0
2018-07-01T04:42:09.248Z,0
2018-07-01T04:43:09.227Z,0
2018-07-01T04:44:09.195Z,0
2018-07-01T04:45:09.243Z,0
2018-07-01T04:46:09.242Z,0
2018-07-01T04:47:09.609Z,0
2018-07-01T04:48:09.180Z,0
2018-07-01T04:49:09.306Z,0
2018-07-01T04:50:09.247Z,0
2018-07-01T04:51:09.277Z,0
2018-07-01T04:52:09.245Z,0
2018-07-01T04:53:09.636Z,0
2018-07-01T04:54:09.244Z,0
2018-07-01T04:55:09.412Z,0
2018-07-01T04:56:09.242Z,0
2018-07-01T04:57:09.224Z,0
2018-07-01T04:58:09.248Z,0
2018-07-01T04:59:09.627Z,0
2018-07-01T05:00:09.267Z,0
2018-07-01T05:01:09.292Z,0
2018-07-01T05:02:09.412Z,0
2018-07-01T05:03:09.280Z,0
2018-07-01T05:04:09.284Z,0
2018-07-01T05:05:09.702Z,0
2018-07-01T05:06:09.308Z,0
2018-07-01T05:07:09.354Z,0
2018-07-01T05:08:09.267Z,0
2018-07-01T05:09:09.346Z,0
2018-07-01T05:10:09.221Z,0
2018-07-01T05:11:09.701Z,0
2018-07-01T05:12:09.238Z,0
2018-07-01T05:13:09.343Z,0
2018-07-01T05:14:09.276Z,0
2018-07-01T05:15:09.343Z,0
2018-07-01T05:16:09.940Z,0
2018-07-01T05:17:09.822Z,0
2018-07-01T05:18:09.307Z,0
2018-07-01T05:23:29.497Z,0
2018-07-01T05:23:41.078Z,0
2018-07-01T05:24:41.006Z,0
2018-07-01T05:25:40.974Z,0
2018-07-01T05:26:41.036Z,0
2018-07-01T05:27:41.104Z,0
2018-07-01T05:28:42.323Z,0
2018-07-01T05:29:40.966Z,0
2018-07-01T05:30:41.025Z,0
2018-07-01T05:31:41.000Z,0
2018-07-01T05:32:41.547Z,0
2018-07-01T05:33:41.052Z,0
2018-07-01T05:34:42.286Z,0
2018-07-01T05:35:41.088Z,0
2018-07-01T05:36:40.984Z,0
2018-07-01T05:37:41.044Z,0
2018-07-01T05:38:41.005Z,0
2018-07-01T05:39:41.016Z,0
2018-07-01T05:40:41.421Z,0
2018-07-01T05:41:41.665Z,0
2018-07-01T05:42:41.005Z,0
2018-07-01T05:43:41.045Z,0
2018-07-01T05:44:41.037Z,0
2018-07-01T05:45:41.078Z,0
2018-07-01T05:46:41.391Z,0
2018-07-01T05:47:41.035Z,0
2018-07-01T05:48:41.043Z,0
2018-07-01T05:49:41.068Z,0
2018-07-01T05:50:41.048Z,0
2018-07-01T05:51:41.021Z,0
2018-07-01T05:52:41.396Z,0
2018-07-01T05:53:41.043Z,0
2018-07-01T05:54:41.058Z,0
2018-07-01T05:55:41.039Z,0
2018-07-01T05:56:41.049Z,0
2018-07-01T05:57:41.066Z,0
2018-07-01T05:58:41.447Z,0
2018-07-01T05:59:41.080Z,0
2018-07-01T06:00:41.072Z,0
2018-07-01T06:01:41.075Z,0
2018-07-01T06:02:41.009Z,0
2018-07-01T06:03:41.084Z,0
2018-07-01T06:04:41.505Z,0
2018-07-01T06:05:41.095Z,0
2018-07-01T06:06:40.996Z,0
2018-07-01T06:07:41.105Z,0
2018-07-01T06:08:41.172Z,0
2018-07-01T06:09:41.068Z,0
2018-07-01T06:10:41.331Z,0
2018-07-01T06:11:41.113Z,0
2018-07-01T06:12:41.090Z,0
2018-07-01T06:13:41.045Z,0
2018-07-01T06:14:41.077Z,0
2018-07-01T06:15:41.120Z,0
2018-07-01T06:16:41.589Z,0
2018-07-01T06:17:41.034Z,0
2018-07-01T06:18:41.207Z,0
2018-07-01T06:19:41.055Z,0
2018-07-01T06:20:41.073Z,0
2018-07-01T06:21:41.074Z,0
2018-07-01T06:22:41.388Z,0
2018-07-01T06:23:41.067Z,0
2018-07-01T06:24:41.214Z,0
2018-07-01T06:25:41.133Z,0
2018-07-01T06:26:41.076Z,0
2018-07-01T06:27:41.083Z,0
2018-07-01T06:28:42.420Z,0
2018-07-01T06:29:41.048Z,0
2018-07-01T06:30:41.098Z,0
2018-07-01T06:31:41.097Z,0
2018-07-01T06:32:41.098Z,0
2018-07-01T06:33:41.111Z,0
2018-07-01T06:34:41.497Z,0
2018-07-01T06:35:41.088Z,0
2018-07-01T06:36:41.075Z,0
2018-07-01T06:37:41.135Z,0
2018-07-01T06:38:41.155Z,0
2018-07-01T06:39:41.170Z,0
2018-07-01T06:40:41.478Z,0
2018-07-01T06:41:41.126Z,0
2018-07-01T06:42:41.119Z,0
2018-07-01T06:43:41.090Z,0
2018-07-01T06:44:41.094Z,0
2018-07-01T06:45:41.236Z,0
2018-07-01T06:46:42.518Z,0
2018-07-01T06:47:41.172Z,0
2018-07-01T06:48:41.215Z,0
2018-07-01T06:49:41.202Z,0
2018-07-01T06:50:41.171Z,0
2018-07-01T06:51:41.172Z,0
2018-07-01T06:52:41.490Z,0
2018-07-01T06:53:41.174Z,0
2018-07-01T06:54:41.130Z,0
2018-07-01T06:55:41.144Z,0
2018-07-01T06:56:41.201Z,0
2018-07-01T06:57:41.202Z,0
2018-07-01T06:58:42.143Z,0
2018-07-01T06:59:41.167Z,0
2018-07-01T07:00:41.205Z,0
2018-07-01T07:01:41.163Z,0
2018-07-01T07:02:41.194Z,0
2018-07-01T07:03:41.227Z,0
2018-07-01T07:04:42.531Z,0
2018-07-01T07:05:41.203Z,0
2018-07-01T07:06:41.092Z,0
2018-07-01T07:07:41.150Z,0
2018-07-01T07:08:41.153Z,0
2018-07-01T07:09:41.140Z,0
2018-07-01T07:10:41.617Z,0
2018-07-01T07:11:41.178Z,0
2018-07-01T07:12:41.190Z,0
2018-07-01T07:13:41.154Z,0
2018-07-01T07:14:41.160Z,0
2018-07-01T07:15:51.465Z,0
2018-07-01T07:16:45.069Z,0
2018-07-01T07:17:47.964Z,0
2018-07-01T07:18:41.137Z,0
2018-07-01T07:19:41.225Z,0
2018-07-01T07:20:41.141Z,0
2018-07-01T07:21:41.212Z,0
2018-07-01T07:22:41.573Z,0
2018-07-01T07:23:41.146Z,0
2018-07-01T07:24:41.263Z,0
2018-07-01T07:25:41.186Z,0
2018-07-01T07:26:41.160Z,0
2018-07-01T07:27:41.172Z,0
2018-07-01T07:28:41.610Z,0
2018-07-01T07:29:41.161Z,0
2018-07-01T07:30:41.351Z,0
2018-07-01T07:31:41.334Z,0
2018-07-01T07:32:41.186Z,0
2018-07-01T07:33:41.210Z,0
2018-07-01T07:34:41.475Z,0
2018-07-01T07:35:41.177Z,0
2018-07-01T07:36:41.207Z,0
2018-07-01T07:37:41.261Z,0
2018-07-01T07:38:41.219Z,0
2018-07-01T07:39:41.222Z,0
2018-07-01T07:40:41.541Z,0
2018-07-01T07:41:41.182Z,0
2018-07-01T07:42:41.195Z,0
2018-07-01T07:43:41.229Z,0
2018-07-01T07:44:41.236Z,0
2018-07-01T07:45:41.235Z,0
2018-07-01T07:46:41.582Z,0
2018-07-01T07:47:41.203Z,0
2018-07-01T07:48:41.343Z,0
2018-07-01T07:49:41.239Z,0
2018-07-01T07:50:41.214Z,0
2018-07-01T07:51:41.224Z,0
2018-07-01T07:52:41.673Z,0
2018-07-01T07:53:41.231Z,0
2018-07-01T07:54:41.190Z,0
2018-07-01T07:55:41.281Z,0
2018-07-01T07:56:41.202Z,0
2018-07-01T07:57:41.192Z,0
2018-07-01T07:58:51.254Z,0
2018-07-01T07:59:41.198Z,0
2018-07-01T08:00:41.288Z,0
2018-07-01T08:01:41.244Z,0
2018-07-01T08:02:41.233Z,0
2018-07-01T08:03:41.249Z,0
2018-07-01T08:04:42.983Z,0
2018-07-01T08:05:41.266Z,0
2018-07-01T08:06:41.244Z,0
2018-07-01T08:07:41.314Z,0
2018-07-01T08:08:41.241Z,0
2018-07-01T08:09:41.215Z,0
2018-07-01T08:10:44.241Z,0
2018-07-01T08:11:41.278Z,0
2018-07-01T08:12:41.274Z,0
2018-07-01T08:13:41.227Z,0
2018-07-01T08:14:41.285Z,0
2018-07-01T08:15:42.816Z,0
2018-07-01T08:16:41.595Z,0
2018-07-01T08:17:41.270Z,0
2018-07-01T08:18:41.408Z,0
2018-07-01T08:19:41.361Z,0
2018-07-01T08:20:41.980Z,0
2018-07-01T08:21:41.241Z,0
2018-07-01T08:22:42.686Z,0
2018-07-01T08:23:41.388Z,0
2018-07-01T08:24:41.313Z,0
2018-07-01T08:25:42.039Z,0
2018-07-01T08:26:41.311Z,0
2018-07-01T08:27:41.417Z,0
2018-07-01T08:28:41.735Z,0
2018-07-01T08:29:41.397Z,0
2018-07-01T08:30:42.181Z,0
2018-07-01T08:31:41.275Z,0
2018-07-01T08:32:41.370Z,0
2018-07-01T08:37:58.642Z,0
2018-07-01T08:38:10.486Z,0
2018-07-01T08:39:10.392Z,0
2018-07-01T08:40:10.518Z,0
2018-07-01T08:41:10.500Z,0
2018-07-01T08:42:10.522Z,0
2018-07-01T08:43:10.354Z,0
2018-07-01T08:44:10.449Z,0
2018-07-01T08:45:10.520Z,0
2018-07-01T08:46:10.494Z,0
2018-07-01T08:47:15.637Z,0
2018-07-01T08:48:10.481Z,0
2018-07-01T08:49:10.764Z,0
2018-07-01T08:50:10.441Z,0
2018-07-01T08:53:17.887Z,0
2018-07-01T08:53:29.420Z,0
2018-07-01T08:54:31.451Z,0
2018-07-01T08:55:29.442Z,0
2018-07-01T08:56:29.415Z,0
2018-07-01T08:57:29.472Z,0
2018-07-01T08:58:29.396Z,0
2018-07-01T08:59:29.527Z,0
2018-07-01T09:00:29.680Z,0
2018-07-01T09:01:29.426Z,0
2018-07-01T09:02:29.394Z,0
2018-07-01T09:03:29.400Z,0
2018-07-01T09:04:29.414Z,0
2018-07-01T09:05:29.394Z,0
2018-07-01T09:06:31.116Z,0
2018-07-01T09:07:29.441Z,0
2018-07-01T09:08:29.555Z,0
2018-07-01T09:09:29.344Z,0
2018-07-01T09:10:30.328Z,0
2018-07-01T09:11:29.390Z,0
2018-07-01T09:12:46.862Z,0
2018-07-01T09:13:29.483Z,0
2018-07-01T09:14:34.425Z,0
2018-07-01T09:15:37.826Z,0
2018-07-01T09:16:29.631Z,0
2018-07-01T09:17:29.413Z,0
2018-07-01T09:18:29.763Z,0
2018-07-01T09:19:29.335Z,0
2018-07-01T09:20:29.442Z,0
2018-07-01T09:21:29.407Z,0
2018-07-01T09:22:29.438Z,0
2018-07-01T09:23:31.926Z,0
2018-07-01T09:24:29.440Z,0
2018-07-01T09:25:29.433Z,0
2018-07-01T09:26:29.396Z,0
2018-07-01T09:27:29.405Z,0
2018-07-01T09:28:29.549Z,0
2018-07-01T09:29:29.935Z,0
2018-07-01T09:30:29.589Z,0
2018-07-01T09:31:29.429Z,0
2018-07-01T09:32:29.370Z,0
2018-07-01T09:33:29.346Z,0
2018-07-01T09:34:29.576Z,0
2018-07-01T09:35:29.688Z,0
2018-07-01T09:36:29.438Z,0
2018-07-01T09:37:29.393Z,0
2018-07-01T09:38:29.407Z,0
2018-07-01T09:39:29.383Z,0
2018-07-01T09:40:29.422Z,0
2018-07-01T09:41:29.841Z,0
2018-07-01T09:42:29.474Z,0
2018-07-01T09:43:29.620Z,0
2018-07-01T09:44:29.445Z,0
2018-07-01T09:45:29.427Z,0
2018-07-01T09:46:29.408Z,0
2018-07-01T09:47:29.737Z,0
2018-07-01T09:48:29.342Z,0
2018-07-01T09:49:30.377Z,0
2018-07-01T09:50:29.760Z,0
2018-07-01T09:51:29.650Z,0
2018-07-01T09:52:29.525Z,0
2018-07-01T09:53:29.832Z,0
2018-07-01T09:54:29.405Z,0
2018-07-01T09:55:29.462Z,0
2018-07-01T09:56:30.249Z,0
2018-07-01T09:57:29.422Z,0
2018-07-01T09:58:29.477Z,0
2018-07-01T09:59:30.689Z,0
2018-07-01T10:00:29.455Z,0
2018-07-01T10:01:29.577Z,0
2018-07-01T10:02:29.520Z,0
2018-07-01T10:03:29.407Z,0
2018-07-01T10:04:29.441Z,0
2018-07-01T10:05:30.776Z,0
2018-07-01T10:06:39.418Z,0
2018-07-01T10:07:30.906Z,0
2018-07-01T10:08:29.629Z,0
2018-07-01T10:09:29.531Z,0
2018-07-01T10:10:29.467Z,0
2018-07-01T10:11:29.873Z,0
2018-07-01T10:12:29.418Z,0
2018-07-01T10:13:29.472Z,4
2018-07-01T10:14:29.485Z,0
2018-07-01T10:15:29.519Z,0
2018-07-01T10:16:29.422Z,0
2018-07-01T10:17:29.798Z,0
2018-07-01T10:18:29.579Z,0
2018-07-01T10:19:29.471Z,0
2018-07-01T10:24:46.165Z,0
2018-07-01T10:24:57.632Z,0
2018-07-01T10:25:58.560Z,0
2018-07-01T10:26:57.618Z,0
2018-07-01T10:27:57.762Z,0
2018-07-01T10:28:57.970Z,0
2018-07-01T10:29:57.672Z,0
2018-07-01T10:30:57.593Z,0
2018-07-01T10:31:57.626Z,0
2018-07-01T10:32:57.641Z,0
2018-07-01T10:33:57.596Z,0
2018-07-01T10:34:57.928Z,0
2018-07-01T10:35:58.351Z,0
2018-07-01T10:36:57.580Z,0
2018-07-01T10:37:57.665Z,0
2018-07-01T10:38:57.600Z,0
2018-07-01T10:39:57.571Z,0
2018-07-01T10:40:59.047Z,0
2018-07-01T10:41:57.794Z,0
2018-07-01T10:42:57.697Z,0
2018-07-01T10:43:57.662Z,0
2018-07-01T10:44:57.593Z,0
2018-07-01T10:45:57.743Z,0
2018-07-01T10:46:58.032Z,0
2018-07-01T10:47:57.629Z,0
2018-07-01T10:48:57.697Z,0
2018-07-01T10:49:57.615Z,0
2018-07-01T10:50:57.644Z,0
2018-07-01T10:51:57.626Z,0
2018-07-01T10:52:57.996Z,0
2018-07-01T10:53:57.643Z,0
2018-07-01T10:54:57.656Z,0
2018-07-01T10:55:57.696Z,0
2018-07-01T10:56:57.729Z,0
2018-07-01T10:57:57.700Z,0
2018-07-01T10:58:59.065Z,0
2018-07-01T10:59:57.660Z,0
2018-07-01T11:00:57.697Z,0
2018-07-01T11:01:57.673Z,0
2018-07-01T11:02:57.658Z,0
2018-07-01T11:03:57.791Z,0
2018-07-01T11:04:58.123Z,0
2018-07-01T11:05:58.036Z,0
2018-07-01T11:06:57.699Z,0
2018-07-01T11:07:57.682Z,0
2018-07-01T11:08:59.106Z,0
2018-07-01T11:09:57.630Z,0
2018-07-01T11:10:58.111Z,0
2018-07-01T11:11:57.693Z,0
2018-07-01T11:12:57.673Z,0
2018-07-01T11:13:57.704Z,0
2018-07-01T11:14:57.659Z,0
2018-07-01T11:15:57.765Z,0
2018-07-01T11:16:59.180Z,0
2018-07-01T11:17:57.713Z,0
2018-07-01T11:18:57.813Z,0
2018-07-01T11:19:57.710Z,0
2018-07-01T11:20:57.776Z,0
2018-07-01T11:21:57.645Z,0
2018-07-01T11:22:58.102Z,0
2018-07-01T11:23:58.529Z,0
2018-07-01T11:24:57.679Z,0
2018-07-01T11:25:57.679Z,0
2018-07-01T11:27:02.687Z,0
2018-07-01T11:27:57.744Z,0
2018-07-01T11:28:59.542Z,0
2018-07-01T11:30:06.946Z,0
2018-07-01T11:30:57.756Z,0
2018-07-01T11:31:59.067Z,0
2018-07-01T11:33:04.616Z,0
2018-07-01T11:33:59.913Z,0
2018-07-01T11:35:00.404Z,0
2018-07-01T11:35:57.691Z,0
2018-07-01T11:37:01.977Z,0
2018-07-01T11:37:58.468Z,0
2018-07-01T11:38:57.816Z,0
2018-07-01T11:39:57.824Z,0
2018-07-01T11:41:01.060Z,0
2018-07-01T11:41:57.731Z,0
2018-07-01T11:44:02.590Z,0
2018-07-01T11:44:14.075Z,0
2018-07-01T11:45:14.068Z,0
2018-07-01T11:46:15.598Z,0
2018-07-01T11:47:13.975Z,0
2018-07-01T11:48:14.053Z,0
2018-07-01T11:49:14.061Z,0
2018-07-01T11:50:14.069Z,0
2018-07-01T11:51:14.056Z,0
2018-07-01T11:52:14.517Z,0
2018-07-01T11:53:14.141Z,0
2018-07-01T11:54:14.154Z,0
2018-07-01T11:55:14.127Z,0
2018-07-01T11:56:14.007Z,0
2018-07-01T11:57:14.039Z,0
2018-07-01T11:58:14.817Z,0
2018-07-01T11:59:14.024Z,0
2018-07-01T12:00:14.006Z,0
2018-07-01T12:01:14.065Z,0
2018-07-01T12:02:14.132Z,0
2018-07-01T12:03:14.081Z,0
2018-07-01T12:04:16.016Z,0
2018-07-01T12:05:16.665Z,0
2018-07-01T12:06:14.078Z,0
2018-07-01T12:07:14.108Z,0
2018-07-01T12:08:14.163Z,0
2018-07-01T12:09:14.922Z,0
2018-07-01T12:10:15.199Z,0
2018-07-01T12:15:31.359Z,0
2018-07-01T12:15:43.190Z,0
2018-07-01T12:16:42.735Z,0
2018-07-01T12:17:42.691Z,0
2018-07-01T12:18:42.825Z,0
2018-07-01T12:19:42.833Z,0
2018-07-01T12:20:42.813Z,0
2018-07-01T12:21:43.156Z,0
2018-07-01T12:22:42.851Z,0
2018-07-01T12:23:42.983Z,0
2018-07-01T12:24:42.790Z,0
2018-07-01T12:25:42.833Z,0
2018-07-01T12:26:42.802Z,0
2018-07-01T12:27:43.218Z,0
2018-07-01T12:28:42.799Z,0
2018-07-01T12:29:42.873Z,0
2018-07-01T12:30:42.796Z,0
2018-07-01T12:31:42.837Z,0
2018-07-01T12:32:42.842Z,0
2018-07-01T12:33:43.312Z,0
2018-07-01T12:34:43.892Z,0
2018-07-01T12:35:42.871Z,0
2018-07-01T12:36:42.852Z,0
2018-07-01T12:37:42.780Z,0
2018-07-01T12:38:42.830Z,0
2018-07-01T12:39:44.264Z,0
2018-07-01T12:40:42.852Z,0
2018-07-01T12:41:44.566Z,0
2018-07-01T12:42:42.917Z,0
2018-07-01T12:43:42.911Z,0
2018-07-01T12:44:42.789Z,0
2018-07-01T12:45:43.408Z,0
2018-07-01T12:46:43.099Z,0
2018-07-01T12:47:42.888Z,0
2018-07-01T12:48:42.925Z,0
2018-07-01T12:49:43.551Z,0
2018-07-01T12:50:42.935Z,0
2018-07-01T12:51:43.200Z,0
2018-07-01T12:52:42.846Z,0
2018-07-01T12:53:42.873Z,0
2018-07-01T12:54:42.879Z,0
2018-07-01T12:55:42.816Z,0
2018-07-01T12:56:42.922Z,0
2018-07-01T12:57:44.207Z,0
2018-07-01T12:58:42.829Z,0
2018-07-01T12:59:42.837Z,0
2018-07-01T13:00:42.896Z,0
2018-07-01T13:01:42.857Z,0
2018-07-01T13:02:42.884Z,0
2018-07-01T13:03:44.322Z,0
2018-07-01T13:04:42.868Z,0
2018-07-01T13:05:42.942Z,0
2018-07-01T13:06:42.911Z,0
2018-07-01T13:07:42.863Z,0
2018-07-01T13:08:43.028Z,0
2018-07-01T13:09:43.259Z,0
2018-07-01T13:10:42.869Z,0
2018-07-01T13:11:42.952Z,0
2018-07-01T13:12:42.949Z,0
2018-07-01T13:13:42.991Z,0
2018-07-01T13:14:42.944Z,0
2018-07-01T13:15:42.926Z,0
2018-07-01T13:16:42.844Z,0
2018-07-01T13:17:42.932Z,0
2018-07-01T13:18:42.944Z,0
2018-07-01T13:19:43.919Z,0
2018-07-01T13:20:43.329Z,0
2018-07-01T13:21:42.888Z,0
2018-07-01T13:22:42.934Z,0
2018-07-01T13:23:42.951Z,0
2018-07-01T13:24:59.036Z,16
2018-07-01T13:26:00.444Z,0
2018-07-01T13:26:59.064Z,0
2018-07-01T13:27:59.050Z,0
2018-07-01T13:28:58.998Z,0
2018-07-01T13:29:59.737Z,0
2018-07-01T13:30:59.061Z,0
2018-07-01T13:31:59.326Z,0
2018-07-01T13:32:59.057Z,0
2018-07-01T13:33:59.007Z,0
2018-07-01T13:34:59.105Z,0
2018-07-01T13:35:59.220Z,12
2018-07-01T13:36:59.037Z,0
2018-07-01T13:37:59.469Z,8
2018-07-01T13:38:59.090Z,16
2018-07-01T13:39:59.055Z,16
2018-07-01T13:40:59.081Z,12
2018-07-01T13:41:59.091Z,12
2018-07-01T13:42:59.159Z,16
2018-07-01T13:43:59.464Z,0
2018-07-01T13:44:59.036Z,0
2018-07-01T13:45:59.043Z,0
2018-07-01T13:46:59.137Z,16
2018-07-01T13:47:59.182Z,12
2018-07-01T13:48:59.130Z,12
2018-07-01T13:50:01.641Z,12
2018-07-01T13:50:59.088Z,12
2018-07-01T13:51:59.200Z,12
2018-07-01T13:52:59.034Z,12
2018-07-01T13:53:59.061Z,12
2018-07-01T13:54:59.067Z,12
2018-07-01T13:55:59.122Z,12
2018-07-01T13:56:59.307Z,12
2018-07-01T13:57:59.267Z,0
2018-07-01T13:58:59.100Z,0
2018-07-01T13:59:59.792Z,0
2018-07-01T14:00:59.468Z,0
2018-07-01T14:01:59.036Z,0
2018-07-01T14:02:59.937Z,0
2018-07-01T14:03:59.230Z,0
2018-07-01T14:04:59.160Z,0
2018-07-01T14:05:59.220Z,0
2018-07-01T14:06:59.431Z,0
2018-07-01T14:07:59.073Z,0
2018-07-01T14:08:59.106Z,0
2018-07-01T14:09:59.061Z,12
2018-07-01T14:10:59.044Z,0
2018-07-01T14:11:59.144Z,0
2018-07-01T14:15:06.396Z,0
2018-07-01T14:15:17.738Z,0
2018-07-01T14:16:17.796Z,0
2018-07-01T14:17:17.847Z,0
2018-07-01T14:18:17.862Z,0
2018-07-01T14:19:17.733Z,0
2018-07-01T14:20:18.083Z,0
2018-07-01T14:21:17.749Z,0
2018-07-01T14:22:17.806Z,0
2018-07-01T14:23:17.730Z,0
2018-07-01T14:24:17.711Z,0
2018-07-01T14:25:17.787Z,0
2018-07-01T14:26:18.091Z,0
2018-07-01T14:27:18.002Z,0
2018-07-01T14:28:17.770Z,0
2018-07-01T14:29:17.799Z,0
2018-07-01T14:30:18.889Z,0
2018-07-01T14:31:17.786Z,0
2018-07-01T14:32:18.180Z,0
2018-07-01T14:33:17.808Z,0
2018-07-01T14:34:17.779Z,0
2018-07-01T14:35:17.807Z,0
2018-07-01T14:36:17.791Z,0
2018-07-01T14:37:17.855Z,0
2018-07-01T14:38:18.144Z,0
2018-07-01T14:39:17.790Z,0
2018-07-01T14:40:17.901Z,0
2018-07-01T14:41:17.858Z,0
2018-07-01T14:42:17.807Z,0
2018-07-01T14:43:18.817Z,0
2018-07-01T14:44:18.280Z,0
2018-07-01T14:45:17.887Z,0
2018-07-01T14:46:18.268Z,0
2018-07-01T14:47:17.873Z,0
2018-07-01T14:48:18.236Z,0
2018-07-01T14:49:18.030Z,0
2018-07-01T14:50:19.221Z,0
2018-07-01T14:51:17.869Z,0
2018-07-01T14:52:17.847Z,0
2018-07-01T14:53:17.830Z,0
2018-07-01T14:54:17.886Z,0
2018-07-01T14:55:17.899Z,0
2018-07-01T14:56:18.258Z,0
2018-07-01T14:57:17.859Z,0
2018-07-01T14:58:17.916Z,0
2018-07-01T14:59:17.849Z,0
2018-07-01T15:00:17.850Z,0
2018-07-01T15:01:17.996Z,0
2018-07-01T15:02:18.220Z,0
2018-07-01T15:03:17.950Z,0
2018-07-01T15:04:17.902Z,0
2018-07-01T15:05:17.881Z,0
2018-07-01T15:06:17.919Z,0
2018-07-01T15:07:17.883Z,0
2018-07-01T15:08:18.214Z,0
2018-07-01T15:09:17.880Z,0